Time;durP1;ratioP1;P1;durP2;ratioP2;P2;SDS_P1;SDS_P2;PMS_P1;PMS_P2;Temp;Humidity;BMP_temperature;BMP_pressure;BME280_temperature;BME280_humidity;BME280_pressure;Samples;Min_cycle;Max_cycle;Signal;HPM_P1;HPM_P2
2023/02/25 00:02:45;;;;;;;0.00;0.00;;;;;;;-145.06;100.00;53922.75;10373488;28;20029;-86
2023/02/25 00:07:45;;;;;;;0.00;0.00;;;;;;;-145.06;100.00;53868.09;10353000;28;20038;-86
2023/02/25 00:12:45;;;;;;;0.00;0.00;;;;;;;-145.06;100.00;53876.19;10356322;28;20080;-87
2023/02/25 00:17:48;;;;;;;0.00;0.00;;;;;;;-145.06;100.00;53892.38;10371183;28;20018;-86
2023/02/25 00:22:48;;;;;;;0.00;0.00;;;;;;;-145.06;100.00;53864.03;10368520;28;20269;-86
2023/02/25 00:27:49;;;;;;;0.00;0.00;;;;;;;-145.06;100.00;53880.22;10355197;28;20030;-87
2023/02/25 00:32:49;;;;;;;0.00;0.00;;;;;;;-145.06;100.00;53862.00;10355326;28;20280;-87
2023/02/25 00:37:50;;;;;;;0.00;0.00;;;;;;;-145.06;100.00;53851.88;10357414;28;20037;-87
2023/02/25 00:42:50;;;;;;;0.00;0.00;;;;;;;-145.06;100.00;53912.63;10357166;28;20060;-87
2023/02/25 00:47:51;;;;;;;0.00;0.00;;;;;;;-145.06;100.00;53847.84;10364457;28;20089;-87
2023/02/25 00:52:51;;;;;;;0.00;0.00;;;;;;;-145.06;100.00;53876.19;10356225;28;20041;-87
2023/02/25 00:57:51;;;;;;;0.00;0.00;;;;;;;-145.06;100.00;53882.25;10355784;28;20365;-86
2023/02/25 01:02:51;;;;;;;0.00;0.00;;;;;;;-145.06;100.00;53884.28;10359454;28;20029;-86
2023/02/25 01:07:52;;;;;;;0.00;0.00;;;;;;;-145.06;100.00;53813.41;10365870;28;20466;-87
2023/02/25 01:12:52;;;;;;;0.00;0.00;;;;;;;-145.06;100.00;53916.69;10380477;28;20030;-87
2023/02/25 01:17:52;;;;;;;0.00;0.00;;;;;;;-145.06;100.00;53896.44;10365936;28;20109;-86
2023/02/25 01:22:53;;;;;;;0.00;0.00;;;;;;;-145.06;100.00;53862.00;10383642;28;20033;-86
2023/02/25 01:27:55;;;;;;;0.00;0.00;;;;;;;-145.06;100.00;53862.00;10364935;28;20368;-86
2023/02/25 01:32:55;;;;;;;0.00;0.00;;;;;;;-145.06;100.00;53896.44;10363086;28;20084;-86
2023/02/25 01:37:56;;;;;;;0.00;0.00;;;;;;;-145.06;100.00;53888.34;10366380;28;20079;-86
2023/02/25 01:42:56;;;;;;;0.00;0.00;;;;;;;-145.06;100.00;53878.22;10382504;28;20026;-87
2023/02/25 01:48:04;;;;;;;0.00;0.00;;;;;;;-145.06;100.00;53813.41;10364099;28;20025;-87
2023/02/25 01:53:05;;;;;;;0.00;0.00;;;;;;;-145.06;100.00;53835.69;10383951;28;20465;-87
2023/02/25 01:58:05;;;;;;;0.00;0.00;;;;;;;-145.06;100.00;53914.66;10383106;28;20014;-87
2023/02/25 02:03:14;;;;;;;0.00;0.00;;;;;;;-145.06;100.00;53855.94;10366703;28;20018;-86
2023/02/25 02:08:15;;;;;;;0.00;0.00;;;;;;;-145.06;100.00;53898.47;10365828;28;20014;-87
2023/02/25 02:13:15;;;;;;;0.00;0.00;;;;;;;-145.06;100.00;53855.94;10364441;28;20022;-86
2023/02/25 02:18:17;;;;;;;0.00;0.00;;;;;;;-145.06;100.00;53892.38;10363067;28;20489;-86
2023/02/25 02:23:45;;;;;;;0.00;0.00;;;;;;;-145.06;100.00;53880.22;10369410;28;20079;-85
2023/02/25 02:29:27;;;;;;;0.00;0.00;;;;;;;-145.06;100.00;53900.50;10381524;28;20080;-85
2023/02/25 02:34:50;;;;;;;0.00;0.00;;;;;;;-145.06;100.00;53864.03;10366518;28;20030;-85
2023/02/25 02:40:43;;;;;;;0.00;0.00;;;;;;;-145.06;100.00;53896.44;10364514;28;20038;-85
2023/02/25 02:46:00;;;;;;;0.00;0.00;;;;;;;-145.06;100.00;53862.00;10321634;28;20041;-85
2023/02/25 02:51:05;;;;;;;0.00;0.00;;;;;;;-145.06;100.00;53910.63;10362596;28;20022;-86
2023/02/25 02:56:07;;;;;;;;;;;;;;;-145.06;100.00;53876.19;10368616;28;20393;-85
2023/02/25 03:01:13;;;;;;;0.00;0.00;;;;;;;-145.06;100.00;53884.28;10367947;28;20325;-86
2023/02/25 03:06:18;;;;;;;0.00;0.00;;;;;;;-145.06;100.00;53870.09;10383251;28;20036;-85
2023/02/25 03:11:19;;;;;;;0.00;0.00;;;;;;;-145.06;100.00;53884.28;10366577;28;20021;-85
2023/02/25 03:16:47;;;;;;;0.00;0.00;;;;;;;-145.06;100.00;53874.16;10364891;28;20018;-85
2023/02/25 03:22:03;;;;;;;0.00;0.00;;;;;;;-145.06;100.00;53853.91;10366166;28;20273;-85
2023/02/25 03:27:22;;;;;;;0.00;0.00;;;;;;;-145.06;100.00;53918.72;10366984;28;20025;-85
2023/02/25 03:32:23;;;;;;;0.00;0.00;;;;;;;-145.06;100.00;53870.09;10382979;28;20088;-85
2023/02/25 03:37:28;;;;;;;0.00;0.00;;;;;;;-145.06;100.00;53845.81;10368201;28;20069;-85
2023/02/25 03:42:33;;;;;;;0.00;0.00;;;;;;;-145.06;100.00;53851.88;10366885;28;20457;-84
2023/02/25 03:47:36;;;;;;;0.00;0.00;;;;;;;-145.06;100.00;53835.69;10366384;28;20147;-84
2023/02/25 03:52:39;;;;;;;0.00;0.00;;;;;;;-145.06;100.00;53886.31;10360646;28;20029;-85
2023/02/25 04:02:48;;;;;;;0.00;0.00;;;;;;;-145.06;100.00;53847.84;10388316;28;20057;-82
2023/02/25 04:07:48;;;;;;;0.00;0.00;;;;;;;-145.06;100.00;53847.84;10388966;28;20030;-81
2023/02/25 04:12:51;;;;;;;0.00;0.00;;;;;;;-145.06;100.00;53855.94;10388671;28;20049;-80
2023/02/25 04:17:52;;;;;;;0.00;0.00;;;;;;;-145.06;100.00;53851.88;10387549;28;20268;-80
2023/02/25 04:22:52;;;;;;;0.10;0.10;;;;;;;-145.06;100.00;53902.50;10387896;28;20025;-78
2023/02/25 04:27:53;;;;;;;0.00;0.00;;;;;;;-145.06;100.00;53847.84;10387283;28;20053;-78
2023/02/25 04:32:53;;;;;;;0.00;0.00;;;;;;;-145.06;100.00;53890.38;10389228;28;20022;-80
2023/02/25 04:37:54;;;;;;;0.00;0.00;;;;;;;-145.06;100.00;53837.72;10352332;28;20276;-81
2023/02/25 04:42:54;;;;;;;0.00;0.00;;;;;;;-145.06;100.00;53888.34;10347421;28;20284;-83
2023/02/25 04:47:56;;;;;;;0.00;0.00;;;;;;;-145.06;100.00;53876.19;10346535;28;20719;-82
2023/02/25 04:52:59;;;;;;;0.00;0.00;;;;;;;-145.06;100.00;53849.84;10346740;28;20077;-81
2023/02/25 04:57:59;;;;;;;0.10;0.10;;;;;;;-145.06;100.00;53864.03;10347578;28;20022;-82
2023/02/25 05:03:00;;;;;;;0.00;0.00;;;;;;;-145.06;100.00;53866.06;10346338;28;20029;-83
2023/02/25 05:08:00;;;;;;;0.00;0.00;;;;;;;-145.06;100.00;53866.06;10348257;28;20022;-80
2023/02/25 05:13:00;;;;;;;0.00;0.00;;;;;;;-145.06;100.00;53878.22;10386551;28;20099;-80
2023/02/25 05:18:01;;;;;;;0.00;0.00;;;;;;;-145.06;100.00;53876.19;10387927;28;20453;-80
2023/02/25 05:23:01;;;;;;;0.00;0.00;;;;;;;-145.06;100.00;53870.09;10387536;28;20030;-79
2023/02/25 05:28:01;;;;;;;0.00;0.00;;;;;;;-145.06;100.00;53853.91;10387591;28;20435;-81
2023/02/25 05:33:02;;;;;;;0.00;0.00;;;;;;;-145.06;100.00;53855.94;10390552;28;20060;-81
2023/02/25 05:38:02;;;;;;;0.05;0.05;;;;;;;-145.06;100.00;53880.22;10389030;28;20018;-82
2023/02/25 05:43:03;;;;;;;0.00;0.00;;;;;;;-145.06;100.00;53851.88;10391860;28;20030;-82
2023/02/25 05:48:04;;;;;;;0.00;0.00;;;;;;;-145.06;100.00;53868.09;10398050;28;20030;-82
2023/02/25 05:53:04;;;;;;;0.00;0.00;;;;;;;-145.06;100.00;53900.50;10368869;28;20468;-82
2023/02/25 05:58:04;;;;;;;0.00;0.00;;;;;;;-145.06;100.00;53866.06;10395738;28;20018;-82
2023/02/25 06:03:05;;;;;;;0.00;0.00;;;;;;;-145.06;100.00;53835.69;10394016;28;20036;-81
2023/02/25 06:08:05;;;;;;;0.00;0.00;;;;;;;-145.06;100.00;53855.94;10395005;28;20052;-79
2023/02/25 06:13:10;;;;;;;0.00;0.00;;;;;;;-145.06;100.00;53894.41;10395457;28;20459;-79
2023/02/25 06:18:11;;;;;;;0.00;0.00;;;;;;;-145.06;100.00;53851.88;10395528;28;20024;-81
2023/02/25 06:23:11;;;;;;;0.00;0.00;;;;;;;-145.06;100.00;53870.09;10394619;28;20049;-82
2023/02/25 06:28:11;;;;;;;0.05;0.05;;;;;;;-145.06;100.00;53922.75;10394929;28;20053;-80
2023/02/25 06:33:11;;;;;;;0.00;0.00;;;;;;;-145.06;100.00;53878.22;10394111;28;20485;-81
2023/02/25 06:38:12;;;;;;;0.00;0.00;;;;;;;-145.06;100.00;53904.53;10393572;28;20108;-80
2023/02/25 06:43:12;;;;;;;0.00;0.00;;;;;;;-145.06;100.00;53851.88;10396739;28;20049;-82
2023/02/25 06:48:12;;;;;;;0.00;0.00;;;;;;;-145.06;100.00;53892.38;10394236;28;20068;-80
2023/02/25 06:53:13;;;;;;;0.00;0.00;;;;;;;-145.06;100.00;53831.63;10393837;28;20481;-81
2023/02/25 06:58:13;;;;;;;0.10;0.10;;;;;;;-145.06;100.00;53884.28;10390961;28;20061;-80
2023/02/25 07:03:14;;;;;;;0.00;0.00;;;;;;;-145.06;100.00;53855.94;10391264;28;20026;-82
2023/02/25 07:08:14;;;;;;;0.00;0.00;;;;;;;-145.06;100.00;53920.75;10392926;28;20625;-81
2023/02/25 07:13:14;;;;;;;0.05;0.05;;;;;;;-145.06;100.00;53851.88;10392934;28;20032;-80
2023/02/25 07:18:15;;;;;;;0.00;0.00;;;;;;;-145.06;100.00;53843.78;10384237;28;20022;-79
2023/02/25 07:23:15;;;;;;;0.07;0.07;;;;;;;-145.06;100.00;53851.88;10350965;28;20273;-79
2023/02/25 07:28:16;;;;;;;0.00;0.00;;;;;;;-145.06;100.00;53872.13;10350272;28;20285;-81
2023/02/25 07:33:17;;;;;;;0.00;0.00;;;;;;;-145.06;100.00;53874.16;10351719;28;20027;-79
2023/02/25 07:38:17;;;;;;;0.00;0.00;;;;;;;-145.06;100.00;53876.19;10350430;28;20026;-81
2023/02/25 07:43:17;;;;;;;0.00;0.00;;;;;;;-145.06;100.00;53851.88;10350519;28;20455;-82
2023/02/25 07:48:17;;;;;;;0.00;0.00;;;;;;;-145.06;100.00;53874.16;10425395;28;20034;-81
2023/02/25 07:53:21;;;;;;;0.00;0.00;;;;;;;-145.06;100.00;53868.09;10394698;28;20032;-81
2023/02/25 07:58:21;;;;;;;0.00;0.00;;;;;;;-145.06;100.00;53862.00;10390879;28;20280;-81
2023/02/25 08:03:21;;;;;;;0.00;0.00;;;;;;;-145.06;100.00;53837.72;10391074;28;20033;-81
2023/02/25 08:08:22;;;;;;;0.00;0.00;;;;;;;-145.06;100.00;53864.03;10399606;28;20026;-82
2023/02/25 08:13:22;;;;;;;0.00;0.00;;;;;;;-145.06;100.00;53839.72;10386524;28;20052;-80
2023/02/25 08:18:22;;;;;;;0.00;0.00;;;;;;;-145.06;100.00;53851.88;10363538;28;20029;-81
2023/02/25 08:23:24;;;;;;;0.00;0.00;;;;;;;-145.06;100.00;53866.06;10378848;28;20228;-82
2023/02/25 08:28:27;;;;;;;0.00;0.00;;;;;;;-145.06;100.00;53827.59;10390129;28;20504;-80
2023/02/25 08:33:28;;;;;;;0.00;0.00;;;;;;;-145.06;100.00;53878.22;10390387;28;20064;-82
2023/02/25 08:38:29;;;;;;;0.00;0.00;;;;;;;-145.06;100.00;53862.00;10431472;28;20022;-80
2023/02/25 08:43:29;;;;;;;0.00;0.00;;;;;;;-145.06;100.00;53880.22;10390783;28;20030;-80
2023/02/25 08:48:29;;;;;;;0.03;0.03;;;;;;;-145.06;100.00;53855.94;10394239;28;20061;-78
2023/02/25 08:53:29;;;;;;;0.00;0.00;;;;;;;-145.06;100.00;53890.38;10388320;28;20077;-80
2023/02/25 08:58:31;;;;;;;0.00;0.00;;;;;;;-145.06;100.00;53849.84;10378823;28;20073;-82
2023/02/25 09:03:31;;;;;;;0.00;0.00;;;;;;;-145.06;100.00;53862.00;10365803;28;20335;-81
2023/02/25 09:08:32;;;;;;;0.00;0.00;;;;;;;-145.06;100.00;53837.72;10381040;28;20072;-79
2023/02/25 09:13:32;;;;;;;0.00;0.00;;;;;;;-145.06;100.00;53835.69;10392058;28;20060;-79
2023/02/25 09:18:33;;;;;;;0.00;0.00;;;;;;;-145.06;100.00;53817.47;10377225;28;20025;-79
2023/02/25 09:23:33;;;;;;;0.00;0.00;;;;;;;-145.06;100.00;53829.59;10398804;28;20260;-80
2023/02/25 09:28:34;;;;;;;0.00;0.00;;;;;;;-145.06;100.00;53819.47;10388711;28;20018;-80
2023/02/25 09:33:36;;;;;;;0.00;0.00;;;;;;;-145.06;100.00;53823.53;10401019;28;20021;-80
2023/02/25 09:38:37;;;;;;;0.00;0.00;;;;;;;-145.06;100.00;53807.31;10369523;28;20026;-83
2023/02/25 09:43:41;;;;;;;0.00;0.00;;;;;;;-145.06;100.00;53821.50;10362757;28;20022;-83
2023/02/25 09:49:08;;;;;;;0.00;0.00;;;;;;;-145.06;100.00;53855.94;10352118;28;20022;-83
2023/02/25 09:54:15;;;;;;;0.00;0.00;;;;;;;-145.06;100.00;53815.44;10366679;28;20034;-83
2023/02/25 09:59:20;;;;;;;0.00;0.00;;;;;;;-145.06;100.00;53829.59;10365647;28;20485;-83
2023/02/25 10:04:34;;;;;;;0.00;0.00;;;;;;;-145.06;100.00;53718.22;10357494;28;20215;-84
2023/02/25 10:10:01;;;;;;;0.00;0.00;;;;;;;-145.06;100.00;53811.38;10363916;28;20569;-84
2023/02/25 10:15:17;;;;;;;0.00;0.00;;;;;;;-145.06;100.00;53819.47;10381471;22;20037;-80
2023/02/25 10:20:40;;;;;;;0.00;0.00;;;;;;;-145.06;100.00;53831.63;10414482;28;20116;-81
2023/02/25 10:25:59;;;;;;;0.08;0.08;;;;;;;-145.06;100.00;53813.41;10404705;28;20438;-81
2023/02/25 10:31:15;;;;;;;0.00;0.00;;;;;;;-145.06;100.00;53853.91;10410924;28;20109;-82
2023/02/25 10:36:16;;;;;;;0.00;0.00;;;;;;;-145.06;100.00;53803.28;10406594;28;20025;-83
2023/02/25 10:41:21;;;;;;;0.00;0.00;;;;;;;-145.06;100.00;53815.44;10406322;28;20028;-81
2023/02/25 10:47:01;;;;;;;0.00;0.00;;;;;;;-145.06;100.00;53831.63;10412524;28;20045;-81
2023/02/25 10:52:05;;;;;;;0.00;0.00;;;;;;;-145.06;100.00;53805.31;10413708;28;20403;-82
2023/02/25 10:57:14;;;;;;;0.00;0.00;;;;;;;-145.06;100.00;53831.63;10417482;28;20028;-81
2023/02/25 11:02:27;;;;;;;0.00;0.00;;;;;;;-145.06;100.00;53813.41;10412726;28;20488;-82
2023/02/25 11:07:36;;;;;;;0.00;0.00;;;;;;;-145.06;100.00;53831.63;10416236;28;20018;-83
2023/02/25 11:12:46;;;;;;;0.00;0.00;;;;;;;-145.06;100.00;53835.69;10408365;28;20558;-82
2023/02/25 11:17:47;;;;;;;0.00;0.00;;;;;;;-145.06;100.00;53833.66;10402781;28;20029;-84
2023/02/25 11:22:51;;;;;;;0.00;0.00;;;;;;;-145.06;100.00;53839.72;10413385;28;20021;-83
2023/02/25 11:27:57;;;;;;;0.00;0.00;;;;;;;-145.06;100.00;53835.69;10400040;28;20096;-83
2023/02/25 11:32:58;;;;;;;0.00;0.00;;;;;;;-145.06;94.32;53864.03;10406922;28;20039;-83
2023/02/25 11:38:13;;;;;;;0.00;0.00;;;;;;;-145.06;99.80;53799.22;10414187;28;20040;-84
2023/02/25 11:43:26;;;;;;;0.00;0.00;;;;;;;-145.06;92.60;53821.50;10409557;28;20120;-83
2023/02/25 11:48:45;;;;;;;0.00;0.00;;;;;;;-145.06;92.67;53825.56;10409111;28;20029;-83
2023/02/25 11:54:07;;;;;;;0.00;0.00;;;;;;;-145.06;90.74;53819.47;10410345;28;20021;-83
2023/02/25 11:59:27;;;;;;;0.00;0.00;;;;;;;-145.06;84.31;53827.59;10416554;28;20109;-83
2023/02/25 12:05:06;;;;;;;0.00;0.00;;;;;;;-145.06;75.03;53845.81;10401692;28;20021;-84
2023/02/25 12:10:42;;;;;;;0.00;0.00;;;;;;;-145.06;82.87;53809.34;10404585;28;20083;-84
2023/02/25 12:16:16;;;;;;;0.00;0.00;;;;;;;-145.06;86.19;53825.56;10408306;28;20018;-84
2023/02/25 12:21:39;;;;;;;;;;;;;;;-145.06;85.59;53809.34;10403979;28;20104;-83
2023/02/25 12:27:07;;;;;;;0.00;0.00;;;;;;;-145.06;80.64;53823.53;10414462;28;19908;-84
2023/02/25 12:32:37;;;;;;;0.00;0.00;;;;;;;-145.06;86.36;53823.53;10407570;28;20032;-84
2023/02/25 12:37:48;;;;;;;0.00;0.00;;;;;;;-145.06;74.46;53825.56;10403858;28;20037;-83
2023/02/25 12:43:12;;;;;;;0.00;0.00;;;;;;;-145.06;77.73;53791.13;10412364;28;20025;-82
2023/02/25 12:48:31;;;;;;;0.00;0.00;;;;;;;-145.06;79.51;53888.34;10397238;28;20041;-84
2023/02/25 12:54:03;;;;;;;0.00;0.00;;;;;;;-145.06;78.64;53801.25;10403617;28;20029;-84
2023/02/25 12:59:36;;;;;;;0.00;0.00;;;;;;;-145.06;77.43;53803.28;10393123;28;20128;-84
2023/02/25 13:05:14;;;;;;;0.00;0.00;;;;;;;-145.06;81.13;53811.38;10394598;28;20026;-81
2023/02/25 13:10:24;;;;;;;0.00;0.00;;;;;;;-145.06;76.29;53862.00;10400045;28;20033;-84
2023/02/25 13:16:01;;;;;;;0.00;0.00;;;;;;;-145.06;71.98;53845.81;10401195;28;20022;-84
2023/02/25 13:21:25;;;;;;;0.00;0.00;;;;;;;-145.06;72.32;53803.28;10403773;28;20168;-85
2023/02/25 13:27:00;;;;;;;0.00;0.00;;;;;;;-145.06;75.43;53815.44;10406934;28;20026;-84
2023/02/25 13:32:26;;;;;;;0.00;0.00;;;;;;;-145.06;73.62;53795.19;10392168;28;20405;-85
2023/02/25 13:37:46;;;;;;;0.00;0.00;;;;;;;-145.06;75.27;53833.66;10401579;28;20025;-84
2023/02/25 13:43:07;;;;;;;0.00;0.00;;;;;;;-145.06;77.05;53821.50;10395337;28;20026;-85
2023/02/25 13:48:33;;;;;;;0.00;0.00;;;;;;;-145.06;76.89;53819.47;10408277;28;20021;-83
2023/02/25 13:54:01;;;;;;;0.00;0.00;;;;;;;-145.06;76.16;53809.34;10401967;28;20029;-85
2023/02/25 13:59:17;;;;;;;0.00;0.00;;;;;;;-145.06;79.83;53847.84;10401968;28;20056;-84
2023/02/25 14:04:20;;;;;;;0.00;0.00;;;;;;;-145.06;81.74;53876.19;10393957;28;20116;-86
2023/02/25 14:09:41;;;;;;;0.00;0.00;;;;;;;-145.06;78.56;53825.56;10419151;28;20028;-83
2023/02/25 14:14:52;;;;;;;0.00;0.00;;;;;;;-145.06;79.83;53825.56;10409657;28;20022;-82
2023/02/25 14:20:27;;;;;;;0.00;0.00;;;;;;;-145.06;75.64;53835.69;10411907;28;20022;-85
2023/02/25 14:25:46;;;;;;;;;;;;;;;-145.06;72.23;53870.09;10405347;28;20074;-85
2023/02/25 14:30:52;;;;;;;0.00;0.00;;;;;;;-145.06;68.52;53805.31;10414410;28;20383;-83
2023/02/25 14:36:12;;;;;;;0.00;0.00;;;;;;;-145.06;70.20;53797.22;10402404;28;20140;-84
2023/02/25 14:41:45;;;;;;;0.00;0.00;;;;;;;-145.06;66.11;53825.56;10409156;28;20124;-83
2023/02/25 14:46:55;;;;;;;0.00;0.00;;;;;;;-145.06;74.67;53809.34;10399293;28;20500;-84
2023/02/25 14:52:33;;;;;;;0.00;0.00;;;;;;;-145.06;68.84;53825.56;10392876;28;20465;-83
2023/02/25 14:57:51;;;;;;;0.00;0.00;;;;;;;-145.06;66.78;53793.16;10399502;28;20080;-84
2023/02/25 15:03:08;;;;;;;0.00;0.00;;;;;;;-145.06;67.06;53811.38;10394284;28;20081;-84
2023/02/25 15:08:46;;;;;;;0.00;0.00;;;;;;;-145.06;63.13;53819.47;10402571;28;20075;-84
2023/02/25 15:13:46;;;;;;;0.00;0.00;;;;;;;-145.06;60.44;53819.47;10409485;28;20083;-84
2023/02/25 15:19:31;;;;;;;0.00;0.00;;;;;;;-145.06;60.83;53813.41;10396101;28;20066;-83
2023/02/25 15:24:37;;;;;;;0.00;0.00;;;;;;;-145.06;58.72;53831.63;10407407;28;20031;-83
2023/02/25 15:29:43;;;;;;;0.00;0.00;;;;;;;-145.06;58.57;53809.34;10398124;28;20059;-83
2023/02/25 15:34:57;;;;;;;0.00;0.00;;;;;;;-145.06;57.45;53845.81;10393092;28;20092;-83
2023/02/25 15:40:15;;;;;;;0.00;0.00;;;;;;;-145.06;58.31;53793.16;10400873;28;20086;-83
2023/02/25 15:45:26;;;;;;;0.00;0.00;;;;;;;-145.06;58.20;53778.97;10410728;28;20053;-83
2023/02/25 15:50:46;;;;;;;0.00;0.00;;;;;;;-145.06;57.47;53857.97;10405639;28;20276;-83
2023/02/25 15:55:49;;;;;;;0.00;0.00;;;;;;;-145.06;58.82;53835.69;10394196;28;20040;-83
2023/02/25 16:00:52;;;;;;;0.00;0.00;;;;;;;-145.06;60.12;53839.72;10400022;28;20572;-83
2023/02/25 16:05:58;;;;;;;0.00;0.00;;;;;;;-145.06;61.42;53823.53;10400335;28;20395;-83
2023/02/25 16:10:59;;;;;;;0.00;0.00;;;;;;;-145.06;62.86;53813.41;10406472;28;20055;-82
2023/02/25 16:16:02;;;;;;;0.00;0.00;;;;;;;-145.06;63.05;53799.22;10390789;28;20139;-82
2023/02/25 16:21:05;;;;;;;0.00;0.00;;;;;;;-145.06;63.06;53801.25;10398808;28;20014;-82
2023/02/25 16:26:21;;;;;;;0.00;0.00;;;;;;;-145.06;63.71;53803.28;10401712;28;20481;-83
2023/02/25 16:31:40;;;;;;;0.00;0.00;;;;;;;-145.06;67.92;53811.38;10401408;28;20032;-83
2023/02/25 16:37:02;;;;;;;0.00;0.00;;;;;;;-145.06;68.85;53803.28;10406855;28;20670;-83
2023/02/25 16:42:08;;;;;;;0.00;0.00;;;;;;;-145.06;66.49;53803.28;10401443;28;20097;-83
2023/02/25 16:47:33;;;;;;;0.00;0.00;;;;;;;-145.06;65.13;53793.16;10390084;28;20021;-83
2023/02/25 16:52:46;;;;;;;0.00;0.00;;;;;;;-145.06;62.79;53851.88;10410676;28;20029;-83
2023/02/25 16:58:23;;;;;;;0.00;0.00;;;;;;;-145.06;61.47;53819.47;10400842;28;20131;-83
2023/02/25 17:03:26;;;;;;;0.00;0.00;;;;;;;-145.06;62.79;53831.63;10338517;28;20036;-83
2023/02/25 17:08:28;;;;;;;0.00;0.00;;;;;;;-145.06;65.74;53855.94;10399983;28;20021;-83
2023/02/25 17:13:33;;;;;;;0.00;0.00;;;;;;;-145.06;70.02;53817.47;10406715;28;20045;-83
2023/02/25 17:18:43;;;;;;;0.00;0.00;;;;;;;-145.06;73.92;53813.41;10403437;28;20099;-83
2023/02/25 17:23:44;;;;;;;0.00;0.00;;;;;;;-145.06;89.90;53778.97;10407048;28;20025;-82
2023/02/25 17:28:48;;;;;;;0.00;0.00;;;;;;;-145.06;100.00;53815.44;10401063;28;20113;-83
2023/02/25 17:33:54;;;;;;;0.00;0.00;;;;;;;-145.06;100.00;53829.59;10391925;28;20022;-83
2023/02/25 17:38:57;;;;;;;0.00;0.00;;;;;;;-145.06;100.00;53843.78;10408382;28;20021;-83
2023/02/25 17:43:57;;;;;;;0.00;0.00;;;;;;;-145.06;100.00;53880.22;10404540;28;20028;-82
2023/02/25 17:49:01;;;;;;;0.03;0.03;;;;;;;-145.06;100.00;53833.66;10402427;28;20020;-83
2023/02/25 17:54:15;;;;;;;0.00;0.00;;;;;;;-145.06;100.00;53821.50;10384331;28;20048;-83
2023/02/25 17:59:34;;;;;;;0.00;0.00;;;;;;;-145.06;100.00;53791.13;10413758;28;20121;-83
2023/02/25 18:04:38;;;;;;;0.00;0.00;;;;;;;-145.06;100.00;53839.72;10414636;28;20029;-83
2023/02/25 18:09:39;;;;;;;0.00;0.00;;;;;;;-145.06;100.00;53864.03;10412535;28;20021;-83
2023/02/25 18:14:43;;;;;;;0.00;0.00;;;;;;;-145.06;100.00;53872.13;10418547;28;20033;-83
2023/02/25 18:19:43;;;;;;;0.00;0.00;;;;;;;-145.06;100.00;53807.31;10405869;28;20049;-82
2023/02/25 18:24:51;;;;;;;0.00;0.00;;;;;;;-145.06;100.00;53882.25;10408047;28;20393;-83
2023/02/25 18:29:52;;;;;;;0.00;0.00;;;;;;;-145.06;100.00;53827.59;10406968;28;20306;-84
2023/02/25 18:34:52;;;;;;;0.00;0.00;;;;;;;-145.06;100.00;53819.47;10403817;28;20052;-83
2023/02/25 18:39:53;;;;;;;0.00;0.00;;;;;;;-145.06;100.00;53827.59;10404029;28;20021;-83
2023/02/25 18:44:53;;;;;;;0.00;0.00;;;;;;;-145.06;100.00;53831.63;10411577;28;20025;-83
2023/02/25 18:49:53;;;;;;;0.10;0.10;;;;;;;-145.06;100.00;53837.72;10404586;28;20276;-83
2023/02/25 18:54:53;;;;;;;0.00;0.00;;;;;;;-145.06;100.00;53835.69;10413567;28;20021;-83
2023/02/25 18:59:54;;;;;;;0.10;0.10;;;;;;;-145.06;100.00;53843.78;10405121;28;20495;-83
2023/02/25 19:04:54;;;;;;;0.00;0.00;;;;;;;-145.06;100.00;53837.72;10411546;28;20451;-82
2023/02/25 19:09:55;;;;;;;0.10;0.10;;;;;;;-145.06;100.00;53799.22;10399455;28;20244;-83
2023/02/25 19:14:58;;;;;;;0.00;0.00;;;;;;;-145.06;100.00;53847.84;10411908;28;20033;-83
2023/02/25 19:19:59;;;;;;;0.10;0.10;;;;;;;-145.06;100.00;53847.84;10397126;28;20500;-83
2023/02/25 19:24:59;;;;;;;0.10;0.10;;;;;;;-145.06;100.00;53778.97;10404509;28;20018;-83
2023/02/25 19:30:01;;;;;;;0.10;0.10;;;;;;;-145.06;100.00;53859.97;10413164;28;20108;-83
2023/02/25 19:35:03;;;;;;;0.10;0.10;;;;;;;-145.06;100.00;53813.41;10401779;28;20112;-83
2023/02/25 19:40:10;;;;;;;0.10;0.10;;;;;;;-145.06;100.00;53829.59;10392978;28;20095;-82
2023/02/25 19:45:14;;;;;;;0.10;0.10;;;;;;;-145.06;100.00;53851.88;10403691;28;20026;-82
2023/02/25 19:50:16;;;;;;;0.15;0.15;;;;;;;-145.06;100.00;53835.69;10387380;28;20384;-82
2023/02/25 19:55:17;;;;;;;0.10;0.10;;;;;;;-145.06;100.00;53821.50;10406785;28;20120;-83
2023/02/25 20:00:20;;;;;;;0.10;0.10;;;;;;;-145.06;100.00;53803.28;10405721;28;20554;-82
2023/02/25 20:05:21;;;;;;;0.17;0.17;;;;;;;-145.06;100.00;53839.72;10406094;28;20021;-83
2023/02/25 20:10:21;;;;;;;0.00;0.00;;;;;;;-145.06;100.00;53821.50;10409078;28;20053;-82
2023/02/25 20:15:22;;;;;;;0.00;0.00;;;;;;;-145.06;100.00;53827.59;10408186;28;20108;-83
2023/02/25 20:20:22;;;;;;;0.10;0.10;;;;;;;-145.06;100.00;53823.53;10399331;28;20469;-82
2023/02/25 20:25:23;;;;;;;0.00;0.00;;;;;;;-145.06;100.00;53839.72;10401809;28;20425;-83
2023/02/25 20:30:23;;;;;;;0.20;0.20;;;;;;;-145.06;100.00;53845.81;10406505;28;20075;-83
2023/02/25 20:35:25;;;;;;;0.00;0.00;;;;;;;-145.06;100.00;53843.78;10407037;28;20025;-83
2023/02/25 20:40:25;;;;;;;0.20;0.20;;;;;;;-145.06;100.00;53853.91;10411975;28;20112;-85
2023/02/25 20:45:28;;;;;;;0.10;0.10;;;;;;;-145.06;100.00;53827.59;10413920;28;20447;-85
2023/02/25 20:50:28;;;;;;;0.10;0.10;;;;;;;-145.06;100.00;53851.88;10414895;28;20065;-86
2023/02/25 20:55:29;;;;;;;0.03;0.03;;;;;;;-145.06;100.00;53841.75;10415859;28;20029;-86
2023/02/25 21:00:29;;;;;;;0.10;0.10;;;;;;;-145.06;100.00;53843.78;10417920;28;20030;-86
2023/02/25 21:05:30;;;;;;;0.10;0.10;;;;;;;-145.06;100.00;53815.44;10416642;28;20025;-86
2023/02/25 21:10:31;;;;;;;0.03;0.03;;;;;;;-145.06;100.00;53835.69;10416119;28;20033;-86
2023/02/25 21:15:31;;;;;;;0.10;0.10;;;;;;;-145.06;100.00;53827.59;10416200;28;20025;-84
2023/02/25 21:20:31;;;;;;;0.10;0.10;;;;;;;-145.06;100.00;53843.78;10419498;28;20029;-86
2023/02/25 21:25:32;;;;;;;0.00;0.00;;;;;;;-145.06;100.00;53833.66;10423747;28;20071;-85
2023/02/25 21:30:32;;;;;;;0.10;0.10;;;;;;;-145.06;100.00;53821.50;10424222;28;20315;-85
2023/02/25 21:35:32;;;;;;;0.10;0.10;;;;;;;-145.06;100.00;53835.69;10423564;28;20484;-84
2023/02/25 21:40:33;;;;;;;0.10;0.10;;;;;;;-145.06;100.00;53807.31;10417773;28;20014;-84
2023/02/25 21:45:33;;;;;;;0.10;0.10;;;;;;;-145.06;100.00;53827.59;10421438;28;20029;-84
2023/02/25 21:50:33;;;;;;;0.10;0.10;;;;;;;-145.06;100.00;53809.34;10408091;28;20816;-85
2023/02/25 21:55:34;;;;;;;0.10;0.10;;;;;;;-145.06;100.00;53853.91;10439392;28;20260;-85
2023/02/25 22:00:34;;;;;;;0.20;0.20;;;;;;;-145.06;100.00;53829.59;10409360;28;20029;-85
2023/02/25 22:05:35;;;;;;;0.10;0.10;;;;;;;-145.06;100.00;53859.97;10423679;28;20363;-84
2023/02/25 22:10:36;;;;;;;0.08;0.08;;;;;;;-145.06;100.00;53799.22;10431284;28;20021;-85
2023/02/25 22:15:36;;;;;;;0.00;0.00;;;;;;;-145.06;100.00;53839.72;10425859;28;20121;-86
2023/02/25 22:20:36;;;;;;;0.10;0.10;;;;;;;-145.06;100.00;53864.03;10424009;28;20484;-86
2023/02/25 22:25:36;;;;;;;0.10;0.10;;;;;;;-145.06;100.00;53835.69;10419748;28;20021;-87
2023/02/25 22:30:37;;;;;;;0.10;0.10;;;;;;;-145.06;100.00;53815.44;10422064;28;20123;-84
2023/02/25 22:35:37;;;;;;;0.10;0.10;;;;;;;-145.06;100.00;53807.31;10450130;22;20041;-81
2023/02/25 22:40:39;;;;;;;0.00;0.00;;;;;;;-145.06;100.00;53851.88;10424789;28;20363;-81
2023/02/25 22:45:40;;;;;;;0.00;0.00;;;;;;;-145.06;100.00;53817.47;10447232;28;20072;-80
2023/02/25 22:50:49;;;;;;;0.00;0.00;;;;;;;-145.06;100.00;53825.56;10429999;28;20507;-81
2023/02/25 22:55:50;;;;;;;0.05;0.05;;;;;;;-145.06;100.00;53841.75;10440334;28;20271;-81
2023/02/25 23:00:50;;;;;;;0.10;0.10;;;;;;;-145.06;100.00;53795.19;10424011;28;20013;-81
2023/02/25 23:05:50;;;;;;;0.00;0.00;;;;;;;-145.06;100.00;53837.72;10422814;28;20158;-81
2023/02/25 23:10:51;;;;;;;0.10;0.10;;;;;;;-145.06;100.00;53829.59;10419091;28;20021;-81